createdAt,value
2018-07-15T00:01:01.578Z,982.86
2018-07-15T00:02:11.160Z,982.84
2018-07-15T00:03:21.230Z,982.83
2018-07-15T00:04:31.316Z,982.84
2018-07-15T00:05:41.117Z,982.86
2018-07-15T00:06:50.900Z,982.85
2018-07-15T00:08:01.015Z,982.86
2018-07-15T00:09:11.086Z,982.83
2018-07-15T00:10:20.901Z,982.85
2018-07-15T00:11:30.697Z,982.87
2018-07-15T00:12:40.770Z,982.87
2018-07-15T00:13:50.624Z,982.88
2018-07-15T00:15:00.698Z,982.95
2018-07-15T00:16:10.499Z,982.96
2018-07-15T00:17:20.288Z,982.96
2018-07-15T00:18:30.097Z,982.99
2018-07-15T00:19:40.212Z,982.98
2018-07-15T00:20:50.006Z,983
2018-07-15T00:21:59.790Z,982.99
2018-07-15T00:23:09.584Z,982.99
2018-07-15T00:24:19.653Z,982.97
2018-07-15T00:25:29.508Z,982.96
2018-07-15T00:26:39.553Z,983
2018-07-15T00:27:49.626Z,982.97
2018-07-15T00:28:59.707Z,983.02
2018-07-15T00:30:09.787Z,983.01
2018-07-15T00:31:19.623Z,983.01
2018-07-15T00:32:29.421Z,983.05
2018-07-15T00:33:39.221Z,983.02
2018-07-15T00:34:48.495Z,983.03
2018-07-15T00:35:58.566Z,983.08
2018-07-15T00:37:08.135Z,983.06
2018-07-15T00:38:18.205Z,983.1
2018-07-15T00:39:28.285Z,983.11
2018-07-15T00:40:38.377Z,983.1
2018-07-15T00:41:48.450Z,983.09
2018-07-15T00:42:58.584Z,983.12
2018-07-15T00:44:08.105Z,983.1
2018-07-15T00:45:18.167Z,983.11
2018-07-15T00:46:27.972Z,983.11
2018-07-15T00:47:37.499Z,983.14
2018-07-15T00:48:47.624Z,983.18
2018-07-15T00:49:57.173Z,983.16
2018-07-15T00:51:06.960Z,983.17
2018-07-15T00:52:16.507Z,983.14
2018-07-15T00:53:26.585Z,983.18
2018-07-15T00:54:36.424Z,983.16
2018-07-15T00:55:46.492Z,983.21
2018-07-15T00:56:56.579Z,983.2
2018-07-15T00:58:06.660Z,983.2
2018-07-15T00:59:16.737Z,983.21
2018-07-15T01:00:26.579Z,983.25
2018-07-15T01:01:36.399Z,983.23
2018-07-15T01:02:46.199Z,983.24
2018-07-15T01:03:56.259Z,983.23
2018-07-15T01:05:06.324Z,983.27
2018-07-15T01:06:16.185Z,983.28
2018-07-15T01:07:26.261Z,983.27
2018-07-15T01:08:36.334Z,983.26
2018-07-15T01:09:46.418Z,983.26
2018-07-15T01:10:56.485Z,983.31
2018-07-15T01:12:06.352Z,983.26
2018-07-15T01:13:16.425Z,983.3
2018-07-15T01:14:26.222Z,983.3
2018-07-15T01:15:36.281Z,983.28
2018-07-15T01:16:46.325Z,983.36
2018-07-15T01:17:56.440Z,983.33
2018-07-15T01:19:06.525Z,983.32
2018-07-15T01:20:16.607Z,983.32
2018-07-15T01:21:26.118Z,983.3
2018-07-15T01:22:35.370Z,983.34
2018-07-15T01:23:45.477Z,983.31
2018-07-15T01:24:55.270Z,983.32
2018-07-15T01:26:04.790Z,983.34
2018-07-15T01:27:14.867Z,983.32
2018-07-15T01:28:24.680Z,983.34
2018-07-15T01:29:34.813Z,983.35
2018-07-15T01:30:44.070Z,983.34
2018-07-15T01:31:54.141Z,983.32
2018-07-15T01:33:03.949Z,983.36
2018-07-15T01:34:13.469Z,983.36
2018-07-15T01:35:23.582Z,983.38
2018-07-15T01:36:33.666Z,983.37
2018-07-15T01:37:43.463Z,983.35
2018-07-15T01:38:53.540Z,983.36
2018-07-15T01:40:03.069Z,983.34
2018-07-15T01:41:12.702Z,983.35
2018-07-15T01:42:22.791Z,983.35
2018-07-15T01:43:32.876Z,983.38
2018-07-15T01:44:42.944Z,983.38
2018-07-15T01:45:52.484Z,983.39
2018-07-15T01:47:02.616Z,983.38
2018-07-15T01:48:12.695Z,983.41
2018-07-15T01:49:22.504Z,983.4
2018-07-15T01:50:32.322Z,983.34
2018-07-15T01:51:42.407Z,983.37
2018-07-15T01:52:52.527Z,983.35
2018-07-15T01:54:02.580Z,983.35
2018-07-15T01:55:12.432Z,983.36
2018-07-15T01:56:22.515Z,983.33
2018-07-15T01:57:31.792Z,983.34
2018-07-15T01:58:41.700Z,983.37
2018-07-15T01:59:51.768Z,983.33
2018-07-15T02:01:01.827Z,983.34
2018-07-15T02:02:11.622Z,983.35
2018-07-15T02:03:21.142Z,983.37
2018-07-15T02:04:30.745Z,983.39
2018-07-15T02:05:40.824Z,983.38
2018-07-15T02:06:50.887Z,983.41
2018-07-15T02:08:00.688Z,983.42
2018-07-15T02:09:10.499Z,983.4
2018-07-15T02:10:20.354Z,983.46
2018-07-15T02:11:30.407Z,983.47
2018-07-15T02:12:40.457Z,983.46
2018-07-15T02:13:50.525Z,983.47
2018-07-15T02:15:00.597Z,983.47
2018-07-15T02:16:10.436Z,983.47
2018-07-15T02:17:20.510Z,983.48
2018-07-15T02:18:30.596Z,983.49
2018-07-15T02:19:40.671Z,983.48
2018-07-15T02:20:50.480Z,983.53
2018-07-15T02:22:00.329Z,983.52
2018-07-15T02:23:09.581Z,983.56
2018-07-15T02:24:19.392Z,983.55
2018-07-15T02:25:29.478Z,983.55
2018-07-15T02:26:39.288Z,983.54
2018-07-15T02:27:49.414Z,983.53
2018-07-15T02:28:59.477Z,983.53
2018-07-15T02:30:09.562Z,983.53
2018-07-15T02:31:18.835Z,983.51
2018-07-15T02:32:28.649Z,983.51
2018-07-15T02:33:38.774Z,983.51
2018-07-15T02:34:48.831Z,983.49
2018-07-15T02:35:58.916Z,983.49
2018-07-15T02:37:08.470Z,983.51
2018-07-15T02:38:17.744Z,983.5
2018-07-15T02:39:27.879Z,983.45
2018-07-15T02:40:37.700Z,983.5
2018-07-15T02:41:47.516Z,983.46
2018-07-15T02:42:57.580Z,983.5
2018-07-15T02:44:07.415Z,983.48
2018-07-15T02:45:16.995Z,983.51
2018-07-15T02:46:26.800Z,983.5
2018-07-15T02:47:36.866Z,983.53
2018-07-15T02:48:46.668Z,983.54
2018-07-15T02:49:56.478Z,983.5
2018-07-15T02:51:06.347Z,983.53
2018-07-15T02:52:16.215Z,983.54
2018-07-15T02:53:25.767Z,983.54
2018-07-15T02:54:35.570Z,983.58
2018-07-15T02:55:45.649Z,983.57
2018-07-15T02:56:55.765Z,983.55
2018-07-15T02:58:05.300Z,983.57
2018-07-15T02:59:15.357Z,983.61
2018-07-15T03:04:49.614Z,983.63
2018-07-15T03:05:59.721Z,983.63
2018-07-15T03:07:09.521Z,983.6
2018-07-15T03:08:19.597Z,983.59
2018-07-15T03:09:29.735Z,983.58
2018-07-15T03:10:39.550Z,983.62
2018-07-15T03:11:49.350Z,983.6
2018-07-15T03:12:59.169Z,983.62
2018-07-15T03:14:09.243Z,983.62
2018-07-15T03:15:19.364Z,983.56
2018-07-15T03:16:29.190Z,983.58
2018-07-15T03:17:38.990Z,983.55
2018-07-15T03:18:48.784Z,983.57
2018-07-15T03:19:58.868Z,983.55
2018-07-15T03:21:08.719Z,983.58
2018-07-15T03:22:18.527Z,983.59
2018-07-15T03:23:28.317Z,983.64
2018-07-15T03:24:38.405Z,983.64
2018-07-15T03:25:47.667Z,983.65
2018-07-15T03:26:57.786Z,983.7
2018-07-15T03:28:07.607Z,983.78
2018-07-15T03:29:17.681Z,983.73
2018-07-15T03:30:27.774Z,983.75
2018-07-15T03:31:37.862Z,983.74
2018-07-15T03:32:47.738Z,983.76
2018-07-15T03:33:57.812Z,983.73
2018-07-15T03:35:07.819Z,983.73
2018-07-15T03:36:17.626Z,983.72
2018-07-15T03:37:27.423Z,983.72
2018-07-15T03:38:37.552Z,983.76
2018-07-15T03:39:47.679Z,983.75
2018-07-15T03:40:57.432Z,983.72
2018-07-15T03:42:07.505Z,983.7
2018-07-15T03:43:17.574Z,983.72
2018-07-15T03:44:27.718Z,983.77
2018-07-15T03:45:37.783Z,983.8
2018-07-15T03:46:47.574Z,983.76
2018-07-15T03:47:57.682Z,983.8
2018-07-15T03:49:07.773Z,983.8
2018-07-15T03:50:17.641Z,983.8
2018-07-15T03:51:27.436Z,983.83
2018-07-15T03:52:37.506Z,983.81
2018-07-15T03:53:47.581Z,983.83
2018-07-15T03:54:57.375Z,983.86
2018-07-15T03:56:07.219Z,983.87
2018-07-15T03:57:17.294Z,983.85
2018-07-15T03:58:27.371Z,983.86
2018-07-15T03:59:37.179Z,983.8
2018-07-15T04:00:47.051Z,983.8
2018-07-15T04:01:57.489Z,983.75
2018-07-15T04:03:07.040Z,983.79
2018-07-15T04:04:16.824Z,983.75
2018-07-15T04:05:26.625Z,983.78
2018-07-15T04:06:36.164Z,983.73
2018-07-15T04:07:46.001Z,983.75
2018-07-15T04:08:55.829Z,983.74
2018-07-15T04:10:06.409Z,983.77
2018-07-15T04:11:16.487Z,983.78
2018-07-15T04:12:26.542Z,983.75
2018-07-15T04:13:36.669Z,983.78
2018-07-15T04:14:46.736Z,983.79
2018-07-15T04:15:56.796Z,983.77
2018-07-15T04:17:06.066Z,983.79
2018-07-15T04:18:16.152Z,983.79
2018-07-15T04:19:25.995Z,983.8
2018-07-15T04:20:35.777Z,983.8
2018-07-15T04:21:45.630Z,983.86
2018-07-15T04:22:55.693Z,983.87
2018-07-15T04:24:05.774Z,983.95
2018-07-15T04:25:15.067Z,983.93
2018-07-15T04:26:24.850Z,983.96
2018-07-15T04:27:34.664Z,983.97
2018-07-15T04:28:44.729Z,983.96
2018-07-15T04:29:54.859Z,983.99
2018-07-15T04:31:04.453Z,983.94
2018-07-15T04:32:13.971Z,983.98
2018-07-15T04:33:24.049Z,983.99
2018-07-15T04:34:34.109Z,983.98
2018-07-15T04:35:44.177Z,983.97
2018-07-15T04:36:54.308Z,984.02
2018-07-15T04:38:04.388Z,983.98
2018-07-15T04:39:14.459Z,984.01
2018-07-15T04:40:24.542Z,984.02
2018-07-15T04:41:34.356Z,983.99
2018-07-15T04:42:43.937Z,983.99
2018-07-15T04:43:54.084Z,984.04
2018-07-15T04:45:04.447Z,984.01
2018-07-15T04:46:14.240Z,984.01
2018-07-15T04:47:24.053Z,984.02
2018-07-15T04:48:33.643Z,984.05
2018-07-15T04:49:43.453Z,984.09
2018-07-15T04:50:53.537Z,984.09
2018-07-15T04:52:03.338Z,984.08
2018-07-15T04:53:12.602Z,984.09
2018-07-15T04:54:22.176Z,984.14
2018-07-15T04:55:31.976Z,984.11
2018-07-15T04:56:41.782Z,984.17
2018-07-15T04:57:51.851Z,984.13
2018-07-15T04:59:01.646Z,984.12
2018-07-15T05:00:11.774Z,984.13
2018-07-15T05:01:21.569Z,984.13
2018-07-15T05:02:31.645Z,984.13
2018-07-15T05:03:41.724Z,984.16
2018-07-15T05:04:51.789Z,984.15
2018-07-15T05:06:01.912Z,984.11
2018-07-15T05:07:12.000Z,984.1
2018-07-15T05:08:22.065Z,984.07
2018-07-15T05:09:31.872Z,984.08
2018-07-15T05:10:41.933Z,984.11
2018-07-15T05:11:51.799Z,984.1
2018-07-15T05:13:01.377Z,984.12
2018-07-15T05:14:11.491Z,984.17
2018-07-15T05:15:20.759Z,984.16
2018-07-15T05:16:30.567Z,984.17
2018-07-15T05:17:40.698Z,984.18
2018-07-15T05:18:50.781Z,984.21
2018-07-15T05:20:00.860Z,984.19
2018-07-15T05:21:10.913Z,984.22
2018-07-15T05:22:20.708Z,984.19
2018-07-15T05:23:30.545Z,984.18
2018-07-15T05:24:40.346Z,984.15
2018-07-15T05:25:50.216Z,984.16
2018-07-15T05:27:00.283Z,984.15
2018-07-15T05:28:09.554Z,984.14
2018-07-15T05:29:19.675Z,984.15
2018-07-15T05:30:29.746Z,984.18
2018-07-15T05:31:39.545Z,984.19
2018-07-15T05:32:49.612Z,984.19
2018-07-15T05:33:59.409Z,984.16
2018-07-15T05:35:08.988Z,984.22
2018-07-15T05:36:19.076Z,984.22
2018-07-15T05:37:28.621Z,984.19
2018-07-15T05:38:38.699Z,984.22
2018-07-15T05:39:48.767Z,984.26
2018-07-15T05:40:58.621Z,984.26
2018-07-15T05:42:08.699Z,984.25
2018-07-15T05:43:18.786Z,984.25
2018-07-15T05:44:28.864Z,984.28
2018-07-15T05:45:38.661Z,984.21
2018-07-15T05:46:48.805Z,984.23
2018-07-15T05:47:58.892Z,984.28
2018-07-15T05:49:08.443Z,984.26
2018-07-15T05:50:18.506Z,984.26
2018-07-15T05:51:28.318Z,984.26
2018-07-15T05:52:38.428Z,984.26
2018-07-15T05:53:48.236Z,984.26
2018-07-15T05:54:57.774Z,984.27
2018-07-15T05:56:07.577Z,984.31
2018-07-15T05:57:17.663Z,984.3
2018-07-15T05:58:27.514Z,984.32
2018-07-15T05:59:37.597Z,984.29
2018-07-15T06:00:47.675Z,984.27
2018-07-15T06:01:57.751Z,984.29
2018-07-15T06:03:07.003Z,984.3
2018-07-15T06:04:16.326Z,984.28
2018-07-15T06:05:26.392Z,984.29
2018-07-15T06:06:36.191Z,984.31
2018-07-15T06:07:46.278Z,984.31
2018-07-15T06:08:56.357Z,984.3
2018-07-15T06:10:06.486Z,984.3
2018-07-15T06:11:16.298Z,984.3
2018-07-15T06:12:26.380Z,984.32
2018-07-15T06:13:36.447Z,984.32
2018-07-15T06:14:46.514Z,984.3
2018-07-15T06:15:56.643Z,984.32
2018-07-15T06:17:06.796Z,984.32
2018-07-15T06:18:17.364Z,984.36
2018-07-15T06:19:27.176Z,984.33
2018-07-15T06:20:36.696Z,984.31
2018-07-15T06:21:46.820Z,984.34
2018-07-15T06:22:56.892Z,984.33
2018-07-15T06:24:06.695Z,984.36
2018-07-15T06:25:16.243Z,984.38
2018-07-15T06:26:26.030Z,984.38
2018-07-15T06:27:35.880Z,984.4
2018-07-15T06:28:45.139Z,984.39
2018-07-15T06:29:54.949Z,984.39
2018-07-15T06:31:04.861Z,984.39
2018-07-15T06:32:15.080Z,984.39
2018-07-15T06:33:24.666Z,984.39
2018-07-15T06:34:34.749Z,984.36
2018-07-15T06:35:44.834Z,984.41
2018-07-15T06:36:54.643Z,984.4
2018-07-15T06:38:04.454Z,984.41
2018-07-15T06:39:14.864Z,984.42
2018-07-15T06:40:25.179Z,984.4
2018-07-15T06:41:35.254Z,984.41
2018-07-15T06:42:45.333Z,984.43
2018-07-15T06:43:55.127Z,984.41
2018-07-15T06:45:04.989Z,984.42
2018-07-15T06:46:15.063Z,984.41
2018-07-15T06:47:25.116Z,984.41
2018-07-15T06:48:35.187Z,984.43
2018-07-15T06:49:44.999Z,984.46
2018-07-15T06:50:55.117Z,984.45
2018-07-15T06:52:04.941Z,984.49
2018-07-15T06:53:14.994Z,984.45
2018-07-15T06:54:25.098Z,984.44
2018-07-15T06:55:34.911Z,984.45
2018-07-15T06:56:44.752Z,984.45
2018-07-15T06:57:54.550Z,984.48
2018-07-15T06:59:04.345Z,984.5
2018-07-15T07:00:14.149Z,984.48
2018-07-15T07:01:24.251Z,984.47
2018-07-15T07:02:34.322Z,984.51
2018-07-15T07:03:44.134Z,984.52
2018-07-15T07:04:53.674Z,984.54
2018-07-15T07:06:03.483Z,984.51
2018-07-15T07:07:13.442Z,984.54
2018-07-15T07:08:24.222Z,984.57
2018-07-15T07:09:34.296Z,984.53
2018-07-15T07:10:43.833Z,984.53
2018-07-15T07:11:53.904Z,984.56
2018-07-15T07:13:03.978Z,984.54
2018-07-15T07:14:13.584Z,984.57
2018-07-15T07:15:23.309Z,984.58
2018-07-15T07:16:33.381Z,984.58
2018-07-15T07:17:43.438Z,984.56
2018-07-15T07:18:53.501Z,984.54
2018-07-15T07:20:03.626Z,984.54
2018-07-15T07:21:13.428Z,984.56
2018-07-15T07:22:23.495Z,984.58
2018-07-15T07:23:33.284Z,984.56
2018-07-15T07:24:43.356Z,984.56
2018-07-15T07:25:53.490Z,984.56
2018-07-15T07:27:03.574Z,984.53
2018-07-15T07:28:13.391Z,984.56
2018-07-15T07:29:23.198Z,984.54
2018-07-15T07:30:33.012Z,984.52
2018-07-15T07:31:42.595Z,984.57
2018-07-15T07:32:52.123Z,984.58
2018-07-15T07:34:01.662Z,984.58
2018-07-15T07:35:11.748Z,984.57
2018-07-15T07:36:21.831Z,984.56
2018-07-15T07:37:31.958Z,984.54
2018-07-15T07:38:42.079Z,984.54
2018-07-15T07:39:52.618Z,984.56
2018-07-15T07:41:02.713Z,984.6
2018-07-15T07:42:12.758Z,984.57
2018-07-15T07:43:22.887Z,984.52
2018-07-15T07:44:32.694Z,984.57
2018-07-15T07:45:42.780Z,984.56
2018-07-15T07:46:52.617Z,984.58
2018-07-15T07:48:02.439Z,984.6
2018-07-15T07:49:12.599Z,984.6
2018-07-15T07:50:21.858Z,984.62
2018-07-15T07:51:31.938Z,984.63
2018-07-15T07:52:42.004Z,984.65
2018-07-15T07:53:52.074Z,984.61
2018-07-15T07:55:01.931Z,984.64
2018-07-15T07:56:11.731Z,984.61
2018-07-15T07:57:21.828Z,984.62
2018-07-15T07:58:31.637Z,984.59
2018-07-15T07:59:41.705Z,984.59
2018-07-15T08:00:51.824Z,984.61
2018-07-15T08:02:02.005Z,984.59
2018-07-15T08:03:11.836Z,984.65
2018-07-15T08:04:21.632Z,984.67
2018-07-15T08:05:31.425Z,984.59
2018-07-15T08:06:41.546Z,984.62
2018-07-15T08:07:51.677Z,984.64
2018-07-15T08:09:01.772Z,984.61
2018-07-15T08:10:11.306Z,984.62
2018-07-15T08:11:21.154Z,984.6
2018-07-15T08:12:31.019Z,984.62
2018-07-15T08:13:40.807Z,984.63
2018-07-15T08:14:50.613Z,984.63
2018-07-15T08:16:00.419Z,984.63
2018-07-15T08:17:10.247Z,984.64
2018-07-15T08:18:20.392Z,984.65
2018-07-15T08:19:30.457Z,984.6
2018-07-15T08:20:40.536Z,984.61
2018-07-15T08:21:50.604Z,984.59
2018-07-15T08:23:00.683Z,984.58
2018-07-15T08:24:10.812Z,984.57
2018-07-15T08:25:20.626Z,984.55
2018-07-15T08:26:30.427Z,984.57
2018-07-15T08:27:40.508Z,984.56
2018-07-15T08:28:50.048Z,984.53
2018-07-15T08:30:00.183Z,984.57
2018-07-15T08:31:09.723Z,984.58
2018-07-15T08:32:19.285Z,984.57
2018-07-15T08:33:29.367Z,984.59
2018-07-15T08:34:39.167Z,984.58
2018-07-15T08:35:49.433Z,984.5
2018-07-15T08:36:59.518Z,984.46
2018-07-15T08:38:09.314Z,984.48
2018-07-15T08:39:18.848Z,984.45
2018-07-15T08:40:28.369Z,984.47
2018-07-15T08:41:38.333Z,984.46
2018-07-15T08:42:48.144Z,984.44
2018-07-15T08:43:57.955Z,984.44
2018-07-15T08:45:07.767Z,984.45
2018-07-15T08:46:17.860Z,984.46
2018-07-15T08:47:27.713Z,984.47
2018-07-15T08:48:37.792Z,984.5
2018-07-15T08:49:47.598Z,984.49
2018-07-15T08:50:57.670Z,984.46
2018-07-15T08:52:07.770Z,984.44
2018-07-15T08:53:17.737Z,984.49
2018-07-15T08:54:27.006Z,984.49
2018-07-15T08:55:37.273Z,984.48
2018-07-15T08:56:47.354Z,984.46
2018-07-15T08:57:57.433Z,984.48
2018-07-15T08:59:07.277Z,984.48
2018-07-15T09:00:17.415Z,984.45
2018-07-15T09:01:27.516Z,984.45
2018-07-15T09:02:37.593Z,984.46
2018-07-15T09:03:47.656Z,984.45
2018-07-15T09:04:57.794Z,984.45
2018-07-15T09:06:07.612Z,984.44
2018-07-15T09:07:17.166Z,984.44
2018-07-15T09:08:26.980Z,984.44
2018-07-15T09:09:37.069Z,984.45
2018-07-15T09:10:47.215Z,984.5
2018-07-15T09:11:57.309Z,984.42
2018-07-15T09:13:07.118Z,984.47
2018-07-15T09:14:17.208Z,984.46
2018-07-15T09:15:26.998Z,984.44
2018-07-15T09:16:37.193Z,984.46
2018-07-15T09:17:47.005Z,984.46
2018-07-15T09:18:56.539Z,984.47
2018-07-15T09:20:06.342Z,984.5
2018-07-15T09:21:16.158Z,984.49
2018-07-15T09:22:26.011Z,984.47
2018-07-15T09:23:36.114Z,984.48
2018-07-15T09:24:46.220Z,984.46
2018-07-15T09:25:55.757Z,984.47
2018-07-15T09:27:05.558Z,984.46
2018-07-15T09:28:14.874Z,984.48
2018-07-15T09:29:24.403Z,984.48
2018-07-15T09:30:34.495Z,984.44
2018-07-15T09:31:44.303Z,984.4
2018-07-15T09:32:53.844Z,984.44
2018-07-15T09:34:03.967Z,984.43
2018-07-15T09:35:14.099Z,984.41
2018-07-15T09:36:24.041Z,984.45
2018-07-15T09:37:33.848Z,984.42
2018-07-15T09:38:43.911Z,984.42
2018-07-15T09:39:53.758Z,984.4
2018-07-15T09:41:03.867Z,984.39
2018-07-15T09:42:13.687Z,984.33
2018-07-15T09:43:23.769Z,984.35
2018-07-15T09:44:32.760Z,984.38
2018-07-15T09:45:42.873Z,984.38
2018-07-15T09:46:52.137Z,984.38
2018-07-15T09:48:01.938Z,984.4
2018-07-15T09:49:11.807Z,984.4
2018-07-15T09:50:21.068Z,984.42
2018-07-15T09:51:30.921Z,984.41
2018-07-15T09:52:40.708Z,984.4
2018-07-15T09:53:50.524Z,984.37
2018-07-15T09:55:00.617Z,984.4
2018-07-15T09:56:10.424Z,984.44
2018-07-15T09:57:20.538Z,984.37
2018-07-15T09:58:30.607Z,984.38
2018-07-15T09:59:40.694Z,984.4
2018-07-15T10:00:50.792Z,984.38
2018-07-15T10:02:00.632Z,984.35
2018-07-15T10:03:10.218Z,984.39
2018-07-15T10:04:20.020Z,984.36
2018-07-15T10:05:30.107Z,984.32
2018-07-15T10:06:40.203Z,984.36
2018-07-15T10:07:49.997Z,984.34
2018-07-15T10:08:59.858Z,984.34
2018-07-15T10:10:09.406Z,984.33
2018-07-15T10:11:19.228Z,984.31
2018-07-15T10:12:29.320Z,984.28
2018-07-15T10:13:39.130Z,984.26
2018-07-15T10:14:49.266Z,984.27
2018-07-15T10:15:59.368Z,984.24
2018-07-15T10:17:08.901Z,984.24
2018-07-15T10:18:18.972Z,984.28
2018-07-15T10:19:28.512Z,984.24
2018-07-15T10:20:38.368Z,984.3
2018-07-15T10:21:48.468Z,984.27
2018-07-15T10:22:58.564Z,984.29
2018-07-15T10:24:08.637Z,984.31
2018-07-15T10:25:18.722Z,984.33
2018-07-15T10:26:28.576Z,984.3
2018-07-15T10:27:38.716Z,984.27
2018-07-15T10:28:48.785Z,984.24
2018-07-15T10:29:58.601Z,984.23
2018-07-15T10:31:08.127Z,984.27
2018-07-15T10:32:18.269Z,984.27
2018-07-15T10:33:28.373Z,984.26
2018-07-15T10:34:38.467Z,984.25
2018-07-15T10:35:48.264Z,984.28
2018-07-15T10:36:57.813Z,984.29
2018-07-15T10:38:07.693Z,984.25
2018-07-15T10:39:17.505Z,984.28
2018-07-15T10:40:27.317Z,984.27
2018-07-15T10:41:37.131Z,984.25
2018-07-15T10:42:46.953Z,984.26
2018-07-15T10:43:56.816Z,984.27
2018-07-15T10:45:06.646Z,984.25
2018-07-15T10:46:16.459Z,984.2
2018-07-15T10:47:26.548Z,984.23
2018-07-15T10:48:36.629Z,984.22
2018-07-15T10:49:46.479Z,984.24
2018-07-15T10:50:56.011Z,984.22
2018-07-15T10:52:05.537Z,984.18
2018-07-15T10:53:15.350Z,984.22
2018-07-15T10:54:24.888Z,984.2
2018-07-15T10:55:34.750Z,984.19
2018-07-15T10:56:44.834Z,984.21
2018-07-15T10:57:54.636Z,984.19
2018-07-15T10:59:04.446Z,984.21
2018-07-15T11:00:13.978Z,984.22
2018-07-15T11:01:23.854Z,984.2
2018-07-15T11:02:33.914Z,984.2
2018-07-15T11:03:43.731Z,984.18
2018-07-15T11:04:53.814Z,984.18
2018-07-15T11:06:03.901Z,984.17
2018-07-15T11:07:13.244Z,984.1
2018-07-15T11:08:23.326Z,984.11
2018-07-15T11:09:33.415Z,984.09
2018-07-15T11:10:43.223Z,984.13
2018-07-15T11:11:53.033Z,984.12
2018-07-15T11:13:03.157Z,984.08
2018-07-15T11:14:13.331Z,984.06
2018-07-15T11:15:23.448Z,984.11
2018-07-15T11:16:33.580Z,984.05
2018-07-15T11:17:44.071Z,984.02
2018-07-15T11:18:54.214Z,984.04
2018-07-15T11:20:04.019Z,984.01
2018-07-15T11:21:13.551Z,984.02
2018-07-15T11:22:23.701Z,984.04
2018-07-15T11:23:34.227Z,984.06
2018-07-15T11:24:43.541Z,984.03
2018-07-15T11:25:53.085Z,984.03
2018-07-15T11:27:03.323Z,984.04
2018-07-15T11:28:12.592Z,984.02
2018-07-15T11:29:22.401Z,984.02
2018-07-15T11:30:32.248Z,984.05
2018-07-15T11:31:42.080Z,984.03
2018-07-15T11:32:52.182Z,984.04
2018-07-15T11:34:01.973Z,984.01
2018-07-15T11:35:11.512Z,984.02
2018-07-15T11:36:21.374Z,983.94
2018-07-15T11:37:31.501Z,983.99
2018-07-15T11:38:41.603Z,984.03
2018-07-15T11:39:51.688Z,984.05
2018-07-15T11:41:01.769Z,984.09
2018-07-15T11:42:11.353Z,984.07
2018-07-15T11:43:21.178Z,984.08
2018-07-15T11:44:31.263Z,984.15
2018-07-15T11:45:40.805Z,984.16
2018-07-15T11:46:50.898Z,984.11
2018-07-15T11:48:00.755Z,984.05
2018-07-15T11:49:10.981Z,984.05
2018-07-15T11:50:20.539Z,984.03
2018-07-15T11:51:30.644Z,984.03
2018-07-15T11:52:40.467Z,983.89
2018-07-15T11:53:50.645Z,983.95
2018-07-15T11:55:00.189Z,983.92
2018-07-15T11:56:10.005Z,983.85
2018-07-15T11:57:19.823Z,983.91
2018-07-15T11:58:29.626Z,983.92
2018-07-15T11:59:39.488Z,983.81
2018-07-15T12:00:49.030Z,983.92
2018-07-15T12:01:58.882Z,983.85
2018-07-15T12:03:08.976Z,983.88
2018-07-15T12:04:19.057Z,983.8
2018-07-15T12:05:28.939Z,983.79
2018-07-15T12:06:39.049Z,983.81
2018-07-15T12:07:49.145Z,983.75
2018-07-15T12:08:59.229Z,983.82
2018-07-15T12:10:09.037Z,983.8
2018-07-15T12:11:19.164Z,983.82
2018-07-15T12:12:28.714Z,983.7
2018-07-15T12:13:38.270Z,983.75
2018-07-15T12:14:47.826Z,983.75
2018-07-15T12:15:57.914Z,983.75
2018-07-15T12:17:07.782Z,983.68
2018-07-15T12:18:17.871Z,983.7
2018-07-15T12:19:27.970Z,983.67
2018-07-15T12:20:38.157Z,983.74
2018-07-15T12:21:48.354Z,983.76
2018-07-15T12:22:58.240Z,983.73
2018-07-15T12:24:08.056Z,983.72
2018-07-15T12:25:17.593Z,983.74
2018-07-15T12:26:27.415Z,983.7
2018-07-15T12:27:37.503Z,983.74
2018-07-15T12:28:47.641Z,983.71
2018-07-15T12:29:57.741Z,983.68
2018-07-15T12:31:07.025Z,983.64
2018-07-15T12:32:17.130Z,983.7
2018-07-15T12:33:26.958Z,983.7
2018-07-15T12:34:36.823Z,983.75
2018-07-15T12:35:46.898Z,983.76
2018-07-15T12:36:56.457Z,983.71
2018-07-15T12:38:06.272Z,983.69
2018-07-15T12:39:16.370Z,983.72
2018-07-15T12:40:26.499Z,983.74
2018-07-15T12:41:36.582Z,983.72
2018-07-15T12:42:46.403Z,983.63
2018-07-15T12:43:56.220Z,983.64
2018-07-15T12:45:06.311Z,983.61
2018-07-15T12:46:16.445Z,983.59
2018-07-15T12:47:26.525Z,983.59
2018-07-15T12:48:36.618Z,983.57
2018-07-15T12:49:46.442Z,983.56
2018-07-15T12:50:56.256Z,983.57
2018-07-15T12:52:06.470Z,983.54
2018-07-15T12:53:17.121Z,983.52
2018-07-15T12:54:26.675Z,983.57
2018-07-15T12:55:36.217Z,983.56
2018-07-15T12:56:46.321Z,983.56
2018-07-15T12:57:56.196Z,983.6
2018-07-15T12:59:06.314Z,983.58
2018-07-15T13:00:16.404Z,983.54
2018-07-15T13:01:26.238Z,983.56
2018-07-15T13:02:35.807Z,983.53
2018-07-15T13:03:46.200Z,983.52
2018-07-15T13:04:56.018Z,983.52
2018-07-15T13:06:05.855Z,983.52
2018-07-15T13:07:15.407Z,983.56
2018-07-15T13:08:25.493Z,983.54
2018-07-15T13:09:35.659Z,983.53
2018-07-15T13:10:45.465Z,983.44
2018-07-15T13:11:55.566Z,983.45
2018-07-15T13:13:05.382Z,983.46
2018-07-15T13:14:15.551Z,983.48
2018-07-15T13:15:24.898Z,983.48
2018-07-15T13:16:34.997Z,983.45
2018-07-15T13:17:44.806Z,983.47
2018-07-15T13:18:54.896Z,983.48
2018-07-15T13:20:04.726Z,983.49
2018-07-15T13:21:14.879Z,983.53
2018-07-15T13:22:24.976Z,983.54
2018-07-15T13:23:35.067Z,983.55
2018-07-15T13:24:44.883Z,983.56
2018-07-15T13:25:54.736Z,983.63
2018-07-15T13:27:04.895Z,983.61
2018-07-15T13:28:14.715Z,983.67
2018-07-15T13:29:24.877Z,983.7
2018-07-15T13:30:35.118Z,983.7
2018-07-15T13:31:44.935Z,983.7
2018-07-15T13:32:54.553Z,983.71
2018-07-15T13:34:04.382Z,983.74
2018-07-15T13:35:14.192Z,983.74
2018-07-15T13:36:24.299Z,983.75
2018-07-15T13:37:34.401Z,983.77
2018-07-15T13:38:44.272Z,983.73
2018-07-15T13:39:54.373Z,983.74
2018-07-15T13:41:04.176Z,983.76
2018-07-15T13:42:13.721Z,983.78
2018-07-15T13:43:23.824Z,983.78
2018-07-15T13:44:33.154Z,983.77
2018-07-15T13:45:42.973Z,983.78
2018-07-15T13:46:53.079Z,983.82
2018-07-15T13:48:03.181Z,983.68
2018-07-15T13:49:13.266Z,983.72
2018-07-15T13:50:23.404Z,983.74
2018-07-15T13:51:33.487Z,983.76
2018-07-15T13:52:43.034Z,983.73
2018-07-15T13:53:53.137Z,983.78
2018-07-15T13:55:03.219Z,983.73
2018-07-15T13:56:12.846Z,983.65
2018-07-15T13:57:22.948Z,983.65
2018-07-15T13:58:32.776Z,983.76
2018-07-15T13:59:42.850Z,983.76
2018-07-15T14:00:52.948Z,983.77
2018-07-15T14:02:03.092Z,983.82
2018-07-15T14:03:12.897Z,983.77
2018-07-15T14:04:22.452Z,983.79
2018-07-15T14:05:32.548Z,983.77
2018-07-15T14:06:42.636Z,983.74
2018-07-15T14:07:52.780Z,983.68
2018-07-15T14:09:02.597Z,983.69
2018-07-15T14:10:12.134Z,983.72
2018-07-15T14:11:22.226Z,983.74
2018-07-15T14:12:31.783Z,983.7
2018-07-15T14:13:41.393Z,983.66
2018-07-15T14:14:51.226Z,983.73
2018-07-15T14:16:00.781Z,983.78
2018-07-15T14:17:10.611Z,983.77
2018-07-15T14:18:20.707Z,983.72
2018-07-15T14:19:30.572Z,983.76
2018-07-15T14:20:40.677Z,983.86
2018-07-15T14:21:50.506Z,983.96
2018-07-15T14:23:00.599Z,984.07
2018-07-15T14:24:10.404Z,983.93
2018-07-15T14:25:20.549Z,983.83
2018-07-15T14:26:30.091Z,984.08
2018-07-15T14:27:40.190Z,984.33
2018-07-15T14:28:50.402Z,984.52
2018-07-15T14:30:00.505Z,984.75
2018-07-15T14:31:10.657Z,984.96
2018-07-15T14:32:20.743Z,985.01
2018-07-15T14:33:30.561Z,984.95
2018-07-15T14:34:39.837Z,984.99
2018-07-15T14:35:49.940Z,984.78
2018-07-15T14:36:59.805Z,984.72
2018-07-15T14:38:09.894Z,984.76
2018-07-15T14:39:19.977Z,984.67
2018-07-15T14:40:30.077Z,984.77